Time;durP1;ratioP1;P1;durP2;ratioP2;P2;SDS_P1;SDS_P2;PMS_P1;PMS_P2;Temp;Humidity;BMP_temperature;BMP_pressure;BME280_temperature;BME280_humidity;BME280_pressure;Samples;Min_cycle;Max_cycle;Signal;HPM_P1;HPM_P2
2024/03/22 00:00:14;;;;;;;;;;;;;;;;;;5038927;28;19913;-74
2024/03/22 00:02:39;;;;;;;;;;;;;;;;;;5051261;28;19912;-73
2024/03/22 00:05:05;;;;;;;;;;;;;;;;;;5050820;28;19921;-74
2024/03/22 00:07:30;;;;;;;;;;;;;;;;;;5032565;28;19917;-74
2024/03/22 00:09:55;;;;;;;;;;;;;;;;;;5032833;28;19917;-73
2024/03/22 00:12:20;;;;;;;;;;;;;;;;;;5038317;28;19943;-75
2024/03/22 00:14:45;;;;;;;;;;;;;;;;;;5052264;28;19967;-72
2024/03/22 00:17:10;;;;;;;;;;;;;;;;;;5048498;28;19917;-74
2024/03/22 00:19:35;;;;;;;;;;;;;;;;;;5032505;28;19917;-72
2024/03/22 00:22:00;;;;;;;;;;;;;;;;;;5049041;28;19944;-73
2024/03/22 00:24:26;;;;;;;;;;;;;;;;;;5039021;28;19913;-73
2024/03/22 00:26:51;;;;;;;;;;;;;;;;;;5042016;28;20289;-74
2024/03/22 00:29:16;;;;;;;;;;;;;;;;;;5051534;28;19962;-74
2024/03/22 00:31:41;;;;;;;;;;;;;;;;;;5051357;28;20315;-73
2024/03/22 00:34:06;;;;;;;;;;;;;;;;;;5051657;28;19919;-74
2024/03/22 00:36:32;;;;;;;;;;;;;;;;;;5052457;28;19920;-74
2024/03/22 00:38:57;;;;;;;;;;;;;;;;;;5044224;28;19915;-73
2024/03/22 00:41:22;;;;;;;;;;;;;;;;;;5049083;28;20372;-74
2024/03/22 00:43:48;;;;;;;;;;;;;;;;;;5052024;28;19913;-74
2024/03/22 00:46:13;;;;;;;;;;;;;;;;;;5050062;28;20366;-75
2024/03/22 00:48:38;;;;;;;;;;;;;;;;;;5042409;28;19933;-74
2024/03/22 00:51:03;;;;;;;;;;;;;;;;;;5031532;28;19951;-74
2024/03/22 00:53:28;;;;;;;;;;;;;;;;;;5031857;28;19909;-75
2024/03/22 00:55:53;;;;;;;;;;;;;;;;;;5030400;28;19913;-75
2024/03/22 00:58:19;;;;;;;;;;;;;;;;;;5031670;28;19909;-75
2024/03/22 01:00:44;;;;;;;;;;;;;;;;;;5015254;28;20385;-75
2024/03/22 01:03:09;;;;;;;;;;;;;;;;;;5029480;28;19917;-74
2024/03/22 01:05:34;;;;;;;;;;;;;;;;;;5030688;28;20683;-75
2024/03/22 01:08:00;;;;;;;;;;;;;;;;;;5017797;28;19913;-73
2024/03/22 01:10:25;;;;;;;;;;;;;;;;;;5027118;28;19917;-73
2024/03/22 01:12:50;;;;;;;;;;;;;;;;;;5027602;28;19914;-73
2024/03/22 01:15:15;;;;;;;;;;;;;;;;;;5025938;28;19914;-73
2024/03/22 01:17:40;;;;;;;;;;;;;;;;;;5018777;28;20007;-74
2024/03/22 01:20:05;;;;;;;;;;;;;;;;;;5017847;28;19913;-73
2024/03/22 01:22:31;;;;;;;;;;;;;;;;;;5017820;28;19917;-75
2024/03/22 01:24:56;;;;;;;;;;;;;;;;;;5031515;28;19913;-72
2024/03/22 01:27:21;;;;;;;;;;;;;;;;;;5024469;28;19992;-73
2024/03/22 01:29:47;;;;;;;;;;;;;;;;;;5026100;28;20072;-73
2024/03/22 01:32:12;;;;;;;;;;;;;;;;;;5014203;28;19965;-74
2024/03/22 01:34:37;;;;;;;;;;;;;;;;;;5027504;28;19920;-72
2024/03/22 01:37:02;;;;;;;;;;;;;;;;;;5017936;28;19909;-73
2024/03/22 01:39:27;;;;;;;;;;;;;;;;;;5026181;28;19913;-73
2024/03/22 01:41:53;;;;;;;;;;;;;;;;;;4998022;28;19910;-74
2024/03/22 01:44:18;;;;;;;;;;;;;;;;;;5018784;28;19947;-74
2024/03/22 01:46:44;;;;;;;;;;;;;;;;;;5015396;28;19964;-72
2024/03/22 01:49:09;;;;;;;;;;;;;;;;;;5043803;28;19980;-73
2024/03/22 01:51:34;;;;;;;;;;;;;;;;;;5037154;28;19913;-73
2024/03/22 01:53:59;;;;;;;;;;;;;;;;;;5054380;28;19912;-74
2024/03/22 01:56:24;;;;;;;;;;;;;;;;;;5052079;28;20288;-73
2024/03/22 01:58:49;;;;;;;;;;;;;;;;;;5053166;28;19939;-74
2024/03/22 02:01:14;;;;;;;;;;;;;;;;;;5054673;28;19920;-74
2024/03/22 02:03:40;;;;;;;;;;;;;;;;;;5053098;28;19920;-73
2024/03/22 02:06:05;;;;;;;;;;;;;;;;;;5032396;28;19959;-72
2024/03/22 02:08:30;;;;;;;;;;;;;;;;;;5052818;28;19919;-75
2024/03/22 02:10:55;;;;;;;;;;;;;;;;;;5035060;28;20388;-74
2024/03/22 02:13:20;;;;;;;;;;;;;;;;;;5042684;28;20269;-74
2024/03/22 02:15:45;;;;;;;;;;;;;;;;;;5054016;28;20349;-73
2024/03/22 02:18:10;;;;;;;;;;;;;;;;;;5041110;28;19948;-72
2024/03/22 02:20:36;;;;;;;;;;;;;;;;;;5051742;28;19913;-73
2024/03/22 02:23:01;;;;;;;;;;;;;;;;;;5053391;28;20292;-75
2024/03/22 02:28:10;;;;;;;;;;;;;;;;;;5045360;28;20399;-74
2024/03/22 02:30:35;;;;;;;;;;;;;;;;;;5035715;28;19988;-74
2024/03/22 02:33:00;;;;;;;;;;;;;;;;;;5048875;28;20378;-74
2024/03/22 02:35:25;;;;;;;;;;;;;;;;;;5053312;28;20274;-74
2024/03/22 02:37:51;;;;;;;;;;;;;;;;;;5052310;28;20373;-74
2024/03/22 02:40:16;;;;;;;;;;;;;;;;;;5054018;28;19966;-74
2024/03/22 02:42:41;;;;;;;;;;;;;;;;;;5048788;28;19917;-74
2024/03/22 02:45:06;;;;;;;;;;;;;;;;;;5045169;28;19916;-74
2024/03/22 02:47:31;;;;;;;;;;;;;;;;;;5040950;28;19912;-72
2024/03/22 02:49:56;;;;;;;;;;;;;;;;;;5052304;28;19929;-73
2024/03/22 02:52:21;;;;;;;;;;;;;;;;;;5051389;28;20349;-73
2024/03/22 02:54:46;;;;;;;;;;;;;;;;;;5048572;28;20364;-73
2024/03/22 02:57:12;;;;;;;;;;;;;;;;;;5049277;28;20438;-73
2024/03/22 02:59:37;;;;;;;;;;;;;;;;;;5020690;28;20392;-73
2024/03/22 03:02:02;;;;;;;;;;;;;;;;;;5049727;28;20284;-73
2024/03/22 03:04:27;;;;;;;;;;;;;;;;;;5053219;28;20375;-72
2024/03/22 03:06:52;;;;;;;;;;;;;;;;;;5049416;28;19920;-73
2024/03/22 03:09:17;;;;;;;;;;;;;;;;;;5033258;28;19975;-73
2024/03/22 03:11:43;;;;;;;;;;;;;;;;;;5033569;28;19913;-73
2024/03/22 03:14:08;;;;;;;;;;;;;;;;;;5046402;28;19975;-73
2024/03/22 03:16:33;;;;;;;;;;;;;;;;;;5053223;28;19966;-73
2024/03/22 03:18:58;;;;;;;;;;;;;;;;;;5050184;28;20003;-73
2024/03/22 03:21:23;;;;;;;;;;;;;;;;;;5051369;28;19920;-73
2024/03/22 03:23:48;;;;;;;;;;;;;;;;;;5052480;28;19913;-73
2024/03/22 03:26:13;;;;;;;;;;;;;;;;;;5053173;28;19912;-73
2024/03/22 03:28:38;;;;;;;;;;;;;;;;;;5051923;28;19999;-75
2024/03/22 03:31:04;;;;;;;;;;;;;;;;;;5040962;28;19909;-74
2024/03/22 03:33:29;;;;;;;;;;;;;;;;;;5033569;28;20002;-75
2024/03/22 03:35:54;;;;;;;;;;;;;;;;;;5048358;28;19920;-75
2024/03/22 03:38:19;;;;;;;;;;;;;;;;;;5052313;28;20272;-75
2024/03/22 03:40:44;;;;;;;;;;;;;;;;;;5035059;28;19913;-75
2024/03/22 03:43:09;;;;;;;;;;;;;;;;;;5034684;28;19961;-75
2024/03/22 03:45:34;;;;;;;;;;;;;;;;;;5046686;28;19913;-75
2024/03/22 03:47:59;;;;;;;;;;;;;;;;;;5031644;28;19917;-75
2024/03/22 03:50:24;;;;;;;;;;;;;;;;;;5019482;28;19923;-75
2024/03/22 03:52:50;;;;;;;;;;;;;;;;;;5026007;28;20377;-75
2024/03/22 03:55:15;;;;;;;;;;;;;;;;;;5018243;28;19913;-75
2024/03/22 03:57:40;;;;;;;;;;;;;;;;;;5030984;28;19913;-75
2024/03/22 04:00:05;;;;;;;;;;;;;;;;;;5025714;28;19925;-75
2024/03/22 04:02:30;;;;;;;;;;;;;;;;;;5026152;28;19920;-75
2024/03/22 04:04:55;;;;;;;;;;;;;;;;;;5037203;28;20133;-75
2024/03/22 04:07:21;;;;;;;;;;;;;;;;;;5021178;28;19967;-75
2024/03/22 04:09:46;;;;;;;;;;;;;;;;;;5031852;28;19917;-75
2024/03/22 04:12:11;;;;;;;;;;;;;;;;;;5031815;28;20404;-75
2024/03/22 04:14:36;;;;;;;;;;;;;;;;;;5031035;28;19952;-75
2024/03/22 04:17:02;;;;;;;;;;;;;;;;;;5031263;28;19909;-75
2024/03/22 04:19:27;;;;;;;;;;;;;;;;;;5016650;28;19913;-75
2024/03/22 04:21:52;;;;;;;;;;;;;;;;;;5031561;28;19917;-75
2024/03/22 04:24:17;;;;;;;;;;;;;;;;;;5004939;28;19922;-75
2024/03/22 04:26:42;;;;;;;;;;;;;;;;;;5029493;28;20369;-75
2024/03/22 04:29:07;;;;;;;;;;;;;;;;;;5032068;28;19916;-75
2024/03/22 04:31:32;;;;;;;;;;;;;;;;;;5032146;28;19916;-76
2024/03/22 04:33:57;;;;;;;;;;;;;;;;;;5031905;28;19915;-75
2024/03/22 04:36:23;;;;;;;;;;;;;;;;;;5032016;28;19916;-75
2024/03/22 04:38:48;;;;;;;;;;;;;;;;;;5032481;28;19932;-75
2024/03/22 04:41:13;;;;;;;;;;;;;;;;;;5023497;28;19914;-79
2024/03/22 04:43:38;;;;;;;;;;;;;;;;;;5013323;28;19917;-80
2024/03/22 04:46:03;;;;;;;;;;;;;;;;;;5012330;28;20353;-80
2024/03/22 04:48:28;;;;;;;;;;;;;;;;;;5012407;28;19933;-78
2024/03/22 04:50:57;;;;;;;;;;;;;;;;;;5019323;28;20386;-79
2024/03/22 04:53:23;;;;;;;;;;;;;;;;;;5031858;28;19916;-80
2024/03/22 04:55:48;;;;;;;;;;;;;;;;;;5030797;28;19916;-79
2024/03/22 04:58:13;;;;;;;;;;;;;;;;;;5032260;28;19955;-80
2024/03/22 05:00:38;;;;;;;;;;;;;;;;;;5032347;28;20262;-79
2024/03/22 05:03:03;;;;;;;;;;;;;;;;;;5028950;28;19913;-78
2024/03/22 05:05:28;;;;;;;;;;;;;;;;;;5018623;28;19949;-79
2024/03/22 05:07:54;;;;;;;;;;;;;;;;;;5031624;28;20294;-76
2024/03/22 05:10:19;;;;;;;;;;;;;;;;;;5031667;28;19917;-75
2024/03/22 05:12:44;;;;;;;;;;;;;;;;;;5026724;28;19914;-75
2024/03/22 05:15:12;;;;;;;;;;;;;;;;;;5011668;28;19909;-75
2024/03/22 05:17:39;;;;;;;;;;;;;;;;;;5011782;28;19910;-75
2024/03/22 05:20:05;;;;;;;;;;;;;;;;;;5017525;28;20340;-75
2024/03/22 05:22:30;;;;;;;;;;;;;;;;;;5051358;28;19921;-75
2024/03/22 05:24:55;;;;;;;;;;;;;;;;;;5042068;28;20059;-75
2024/03/22 05:27:20;;;;;;;;;;;;;;;;;;5031092;28;19920;-75
2024/03/22 05:29:46;;;;;;;;;;;;;;;;;;5025570;28;19929;-75
2024/03/22 05:32:11;;;;;;;;;;;;;;;;;;5018054;28;19913;-74
2024/03/22 05:34:36;;;;;;;;;;;;;;;;;;5013753;28;19976;-74
2024/03/22 05:37:01;;;;;;;;;;;;;;;;;;5003248;28;19995;-74
2024/03/22 05:39:26;;;;;;;;;;;;;;;;;;5030205;28;19913;-74
2024/03/22 05:41:52;;;;;;;;;;;;;;;;;;5031080;28;20381;-74
2024/03/22 05:44:17;;;;;;;;;;;;;;;;;;5030124;28;19986;-75
2024/03/22 05:46:42;;;;;;;;;;;;;;;;;;5019665;28;19913;-75
2024/03/22 05:49:07;;;;;;;;;;;;;;;;;;5031776;28;19971;-78
2024/03/22 05:51:33;;;;;;;;;;;;;;;;;;5067859;28;19920;-78
2024/03/22 05:53:58;;;;;;;;;;;;;;;;;;5071527;28;19954;-78
2024/03/22 05:56:23;;;;;;;;;;;;;;;;;;5047316;28;19913;-76
2024/03/22 05:58:48;;;;;;;;;;;;;;;;;;5030949;28;19913;-74
2024/03/22 06:01:13;;;;;;;;;;;;;;;;;;5047980;28;19919;-74
2024/03/22 06:03:38;;;;;;;;;;;;;;;;;;5050876;28;19948;-74
2024/03/22 06:06:04;;;;;;;;;;;;;;;;;;5042036;28;20012;-74
2024/03/22 06:08:29;;;;;;;;;;;;;;;;;;5036925;28;19917;-70
2024/03/22 06:10:54;;;;;;;;;;;;;;;;;;5040083;28;19936;-72
2024/03/22 06:13:19;;;;;;;;;;;;;;;;;;5034214;28;19920;-77
2024/03/22 06:15:45;;;;;;;;;;;;;;;;;;5031648;28;19920;-75
2024/03/22 06:18:10;;;;;;;;;;;;;;;;;;5033776;28;19913;-76
2024/03/22 06:20:35;;;;;;;;;;;;;;;;;;5040786;28;19917;-74
2024/03/22 06:23:00;;;;;;;;;;;;;;;;;;5052439;28;19917;-74
2024/03/22 06:25:26;;;;;;;;;;;;;;;;;;5044303;28;19919;-73
2024/03/22 06:27:51;;;;;;;;;;;;;;;;;;5036559;28;20000;-74
2024/03/22 06:30:17;;;;;;;;;;;;;;;;;;5043851;28;19974;-75
2024/03/22 06:32:42;;;;;;;;;;;;;;;;;;5046490;28;19910;-74
2024/03/22 06:35:07;;;;;;;;;;;;;;;;;;5046598;28;19955;-75
2024/03/22 06:37:32;;;;;;;;;;;;;;;;;;5036662;28;20403;-75
2024/03/22 06:39:58;;;;;;;;;;;;;;;;;;5055194;28;19908;-74
2024/03/22 06:42:23;;;;;;;;;;;;;;;;;;5040077;28;19913;-75
2024/03/22 06:44:48;;;;;;;;;;;;;;;;;;5056172;28;19909;-75
2024/03/22 06:47:14;;;;;;;;;;;;;;;;;;5055542;28;20012;-75
2024/03/22 06:49:39;;;;;;;;;;;;;;;;;;5055072;28;19927;-75
2024/03/22 06:52:04;;;;;;;;;;;;;;;;;;5054882;28;20453;-73
2024/03/22 06:54:29;;;;;;;;;;;;;;;;;;5054322;28;20039;-74
2024/03/22 06:56:54;;;;;;;;;;;;;;;;;;5049090;28;19921;-75
2024/03/22 06:59:19;;;;;;;;;;;;;;;;;;5054904;28;20361;-75
2024/03/22 07:01:44;;;;;;;;;;;;;;;;;;5053303;28;19924;-75
2024/03/22 07:04:10;;;;;;;;;;;;;;;;;;5038879;28;19956;-74
2024/03/22 07:06:35;;;;;;;;;;;;;;;;;;5046708;28;19912;-75
2024/03/22 07:09:00;;;;;;;;;;;;;;;;;;5041261;28;19921;-74
2024/03/22 07:11:25;;;;;;;;;;;;;;;;;;5052429;28;20004;-75
2024/03/22 07:13:50;;;;;;;;;;;;;;;;;;5043190;28;19924;-74
2024/03/22 07:16:15;;;;;;;;;;;;;;;;;;5051840;28;19912;-74
2024/03/22 07:18:40;;;;;;;;;;;;;;;;;;5053446;28;20238;-70
2024/03/22 07:21:05;;;;;;;;;;;;;;;;;;5047495;28;19913;-70
2024/03/22 07:23:31;;;;;;;;;;;;;;;;;;5053605;28;19914;-71
2024/03/22 07:25:56;;;;;;;;;;;;;;;;;;5052464;28;19916;-71
2024/03/22 07:28:21;;;;;;;;;;;;;;;;;;5049251;28;19917;-71
2024/03/22 07:30:47;;;;;;;;;;;;;;;;;;5049298;28;19917;-72
2024/03/22 07:33:17;;;;;;;;;;;;;;;;;;5033190;28;20349;-72
2024/03/22 07:35:42;;;;;;;;;;;;;;;;;;5035276;28;20404;-71
2024/03/22 07:38:07;;;;;;;;;;;;;;;;;;5053235;28;19944;-72
2024/03/22 07:40:32;;;;;;;;;;;;;;;;;;5051036;28;20277;-71
2024/03/22 07:42:59;;;;;;;;;;;;;;;;;;5032878;28;19920;-71
2024/03/22 07:45:24;;;;;;;;;;;;;;;;;;5052830;28;20348;-71
2024/03/22 07:47:49;;;;;;;;;;;;;;;;;;5032937;28;20373;-71
2024/03/22 07:50:15;;;;;;;;;;;;;;;;;;5032746;28;20312;-72
2024/03/22 07:52:40;;;;;;;;;;;;;;;;;;5032552;28;19917;-71
2024/03/22 07:55:05;;;;;;;;;;;;;;;;;;5050702;28;19970;-72
2024/03/22 07:57:31;;;;;;;;;;;;;;;;;;5051236;28;19924;-73
2024/03/22 07:59:56;;;;;;;;;;;;;;;;;;5044786;28;19921;-71
2024/03/22 08:02:21;;;;;;;;;;;;;;;;;;5036646;28;19919;-71
2024/03/22 08:04:46;;;;;;;;;;;;;;;;;;5033247;28;19979;-72
2024/03/22 08:07:11;;;;;;;;;;;;;;;;;;5033683;28;19924;-71
2024/03/22 08:09:36;;;;;;;;;;;;;;;;;;5040081;28;19959;-71
2024/03/22 08:12:02;;;;;;;;;;;;;;;;;;5040748;28;19952;-71
2024/03/22 08:14:27;;;;;;;;;;;;;;;;;;5045513;28;19912;-72
2024/03/22 08:16:53;;;;;;;;;;;;;;;;;;5052456;28;19909;-71
2024/03/22 08:19:18;;;;;;;;;;;;;;;;;;5038357;28;19967;-71
2024/03/22 08:21:43;;;;;;;;;;;;;;;;;;5031947;28;19917;-71
2024/03/22 08:24:08;;;;;;;;;;;;;;;;;;5031846;28;19917;-71
2024/03/22 08:26:33;;;;;;;;;;;;;;;;;;5031954;28;20006;-72
2024/03/22 08:28:59;;;;;;;;;;;;;;;;;;5041403;28;19920;-76
2024/03/22 08:31:25;;;;;;;;;;;;;;;;;;5051460;28;19913;-76
2024/03/22 08:33:50;;;;;;;;;;;;;;;;;;5042386;28;19913;-77
2024/03/22 08:36:15;;;;;;;;;;;;;;;;;;5035629;28;19940;-76
2024/03/22 08:38:41;;;;;;;;;;;;;;;;;;5043977;28;20402;-72
2024/03/22 08:41:06;;;;;;;;;;;;;;;;;;5031941;28;19909;-74
2024/03/22 08:43:32;;;;;;;;;;;;;;;;;;5045687;28;20000;-75
2024/03/22 08:45:57;;;;;;;;;;;;;;;;;;5045015;28;19942;-74
2024/03/22 08:48:23;;;;;;;;;;;;;;;;;;5045533;28;20325;-75
2024/03/22 08:50:48;;;;;;;;;;;;;;;;;;5050786;28;20003;-75
2024/03/22 08:53:13;;;;;;;;;;;;;;;;;;5049175;28;19980;-75
2024/03/22 08:55:38;;;;;;;;;;;;;;;;;;5046999;28;19913;-74
2024/03/22 08:58:03;;;;;;;;;;;;;;;;;;5047477;28;20007;-74
2024/03/22 09:00:29;;;;;;;;;;;;;;;;;;5049763;28;19913;-74
2024/03/22 09:02:54;;;;;;;;;;;;;;;;;;5048227;28;20386;-75
2024/03/22 09:05:19;;;;;;;;;;;;;;;;;;5047569;28;20510;-74
2024/03/22 09:07:44;;;;;;;;;;;;;;;;;;5050393;28;20046;-75
2024/03/22 09:10:09;;;;;;;;;;;;;;;;;;5038479;28;20373;-74
2024/03/22 09:12:34;;;;;;;;;;;;;;;;;;5039828;28;19928;-74
2024/03/22 09:15:00;;;;;;;;;;;;;;;;;;5044710;28;19920;-74
2024/03/22 09:17:25;;;;;;;;;;;;;;;;;;5042845;28;19967;-73
2024/03/22 09:19:51;;;;;;;;;;;;;;;;;;5042189;28;19967;-74
2024/03/22 09:22:16;;;;;;;;;;;;;;;;;;5031165;28;20054;-74
2024/03/22 09:24:41;;;;;;;;;;;;;;;;;;5048344;28;19917;-74
2024/03/22 09:27:09;;;;;;;;;;;;;;;;;;5043755;28;20369;-74
2024/03/22 09:29:34;;;;;;;;;;;;;;;;;;5049852;28;19997;-75
2024/03/22 09:31:59;;;;;;;;;;;;;;;;;;5043873;28;19948;-78
2024/03/22 09:34:24;;;;;;;;;;;;;;;;;;5049084;28;19913;-79
2024/03/22 09:36:50;;;;;;;;;;;;;;;;;;5050178;28;19960;-75
2024/03/22 09:39:15;;;;;;;;;;;;;;;;;;5049534;28;19917;-75
2024/03/22 09:41:40;;;;;;;;;;;;;;;;;;5051107;28;19916;-74
2024/03/22 09:44:05;;;;;;;;;;;;;;;;;;5054802;28;20016;-75
2024/03/22 09:46:30;;;;;;;;;;;;;;;;;;5034961;28;19916;-75
2024/03/22 09:48:55;;;;;;;;;;;;;;;;;;5031084;28;19933;-75
2024/03/22 09:51:20;;;;;;;;;;;;;;;;;;5031182;28;19924;-75
2024/03/22 09:53:45;;;;;;;;;;;;;;;;;;5050743;28;19923;-75
2024/03/22 09:56:11;;;;;;;;;;;;;;;;;;5051237;28;19913;-74
2024/03/22 09:58:36;;;;;;;;;;;;;;;;;;5054397;28;19974;-74
2024/03/22 10:01:01;;;;;;;;;;;;;;;;;;5052307;28;20415;-75
2024/03/22 10:03:26;;;;;;;;;;;;;;;;;;5050331;28;19917;-75
2024/03/22 10:05:52;;;;;;;;;;;;;;;;;;5052087;28;19913;-75
2024/03/22 10:08:17;;;;;;;;;;;;;;;;;;5053884;28;19917;-75
2024/03/22 10:10:42;;;;;;;;;;;;;;;;;;5055912;28;19913;-71
2024/03/22 10:13:08;;;;;;;;;;;;;;;;;;5054046;28;19908;-80
2024/03/22 10:15:33;;;;;;;;;;;;;;;;;;5051733;28;19912;-74
2024/03/22 10:17:58;;;;;;;;;;;;;;;;;;5052543;28;19927;-76
2024/03/22 10:20:23;;;;;;;;;;;;;;;;;;5059326;28;19921;-75
2024/03/22 10:22:49;;;;;;;;;;;;;;;;;;5044609;28;19921;-75
2024/03/22 10:25:14;;;;;;;;;;;;;;;;;;5043791;28;19912;-75
2024/03/22 10:27:39;;;;;;;;;;;;;;;;;;5054189;28;20343;-75
2024/03/22 10:30:04;;;;;;;;;;;;;;;;;;5035129;28;20277;-76
2024/03/22 10:32:29;;;;;;;;;;;;;;;;;;5034054;28;20007;-75
2024/03/22 10:34:54;;;;;;;;;;;;;;;;;;5048414;28;19921;-74
2024/03/22 10:37:19;;;;;;;;;;;;;;;;;;5054448;28;19916;-74
2024/03/22 10:39:45;;;;;;;;;;;;;;;;;;5060098;28;19919;-75
2024/03/22 10:42:10;;;;;;;;;;;;;;;;;;5035843;28;21447;-79
2024/03/22 10:44:35;;;;;;;;;;;;;;;;;;5040877;28;20004;-78
2024/03/22 10:47:00;;;;;;;;;;;;;;;;;;5053066;28;19913;-80
2024/03/22 10:49:25;;;;;;;;;;;;;;;;;;5035994;28;19968;-78
2024/03/22 10:51:51;;;;;;;;;;;;;;;;;;5055277;28;19913;-78
2024/03/22 10:54:16;;;;;;;;;;;;;;;;;;5051410;28;19920;-72
2024/03/22 10:56:48;;;;;;;;;;;;;;;;;;5032629;28;20377;-71
2024/03/22 10:59:14;;;;;;;;;;;;;;;;;;5045351;28;20308;-75
2024/03/22 11:01:39;;;;;;;;;;;;;;;;;;5038499;28;19913;-75
2024/03/22 11:04:06;;;;;;;;;;;;;;;;;;5052070;28;19913;-75
2024/03/22 11:06:32;;;;;;;;;;;;;;;;;;5051942;28;19958;-75
2024/03/22 11:08:57;;;;;;;;;;;;;;;;;;5045452;28;19948;-76
2024/03/22 11:11:22;;;;;;;;;;;;;;;;;;5033748;28;19955;-75
2024/03/22 11:13:48;;;;;;;;;;;;;;;;;;5041643;28;20331;-75
2024/03/22 11:16:14;;;;;;;;;;;;;;;;;;5025089;28;19915;-75
2024/03/22 11:18:39;;;;;;;;;;;;;;;;;;5033136;28;20354;-75
2024/03/22 11:21:07;;;;;;;;;;;;;;;;;;5044722;28;19959;-75
2024/03/22 11:23:32;;;;;;;;;;;;;;;;;;5045790;28;19928;-75
2024/03/22 11:25:58;;;;;;;;;;;;;;;;;;5032130;28;19909;-74
2024/03/22 11:28:23;;;;;;;;;;;;;;;;;;5037705;28;19920;-74
2024/03/22 11:30:48;;;;;;;;;;;;;;;;;;5049214;28;20004;-73
2024/03/22 11:33:14;;;;;;;;;;;;;;;;;;5033269;28;19913;-74
2024/03/22 11:35:39;;;;;;;;;;;;;;;;;;5037108;28;20373;-75
2024/03/22 11:38:05;;;;;;;;;;;;;;;;;;5044430;28;19963;-74
2024/03/22 11:40:31;;;;;;;;;;;;;;;;;;5033035;28;20431;-74
2024/03/22 11:42:56;;;;;;;;;;;;;;;;;;5032406;28;19921;-74
2024/03/22 11:45:21;;;;;;;;;;;;;;;;;;5043068;28;19913;-74
2024/03/22 11:47:46;;;;;;;;;;;;;;;;;;5051477;28;20432;-74
2024/03/22 11:50:13;;;;;;;;;;;;;;;;;;5043318;28;19929;-75
2024/03/22 11:52:38;;;;;;;;;;;;;;;;;;5048605;28;19962;-74
2024/03/22 11:55:03;;;;;;;;;;;;;;;;;;5051914;28;19963;-75
2024/03/22 11:57:28;;;;;;;;;;;;;;;;;;5052818;28;19908;-75
2024/03/22 11:59:53;;;;;;;;;;;;;;;;;;5035043;28;19959;-74
2024/03/22 12:02:18;;;;;;;;;;;;;;;;;;5052757;28;19958;-76
2024/03/22 12:04:43;;;;;;;;;;;;;;;;;;5051823;28;19920;-74
2024/03/22 12:07:09;;;;;;;;;;;;;;;;;;5042335;28;20281;-73
2024/03/22 12:09:34;;;;;;;;;;;;;;;;;;5052173;28;19924;-78
2024/03/22 12:11:59;;;;;;;;;;;;;;;;;;5037254;28;19998;-77
2024/03/22 12:14:24;;;;;;;;;;;;;;;;;;5049313;28;20334;-76
2024/03/22 12:16:49;;;;;;;;;;;;;;;;;;5046673;28;19913;-77
2024/03/22 12:19:14;;;;;;;;;;;;;;;;;;5032737;28;19909;-76
2024/03/22 12:21:39;;;;;;;;;;;;;;;;;;5032261;28;19917;-75
2024/03/22 12:24:04;;;;;;;;;;;;;;;;;;5051843;28;19948;-77
2024/03/22 12:26:29;;;;;;;;;;;;;;;;;;5047873;28;19909;-77
2024/03/22 12:28:55;;;;;;;;;;;;;;;;;;5039672;28;19921;-77
2024/03/22 12:31:20;;;;;;;;;;;;;;;;;;5044584;28;19917;-77
2024/03/22 12:33:45;;;;;;;;;;;;;;;;;;5040574;28;19920;-77
2024/03/22 12:36:10;;;;;;;;;;;;;;;;;;5051884;28;19913;-76
2024/03/22 12:38:35;;;;;;;;;;;;;;;;;;5050680;28;20545;-76
2024/03/22 12:41:00;;;;;;;;;;;;;;;;;;5051416;28;20284;-75
2024/03/22 12:43:26;;;;;;;;;;;;;;;;;;5039004;28;20411;-75
2024/03/22 12:45:51;;;;;;;;;;;;;;;;;;5044397;28;19913;-75
2024/03/22 12:48:16;;;;;;;;;;;;;;;;;;5036257;28;19917;-76
2024/03/22 12:50:41;;;;;;;;;;;;;;;;;;5028719;28;19917;-75
2024/03/22 12:53:07;;;;;;;;;;;;;;;;;;5026031;28;19913;-74
2024/03/22 12:55:32;;;;;;;;;;;;;;;;;;5015587;28;19914;-75
2024/03/22 12:57:57;;;;;;;;;;;;;;;;;;5016093;28;19994;-75
2024/03/22 13:00:22;;;;;;;;;;;;;;;;;;5020965;28;20008;-75
2024/03/22 13:02:47;;;;;;;;;;;;;;;;;;5024888;28;19913;-75
2024/03/22 13:05:13;;;;;;;;;;;;;;;;;;5024634;28;19917;-76
2024/03/22 13:07:38;;;;;;;;;;;;;;;;;;5020570;28;20000;-75
2024/03/22 13:10:03;;;;;;;;;;;;;;;;;;5021657;28;19967;-73
2024/03/22 13:12:30;;;;;;;;;;;;;;;;;;5021567;28;19955;-73
2024/03/22 13:14:56;;;;;;;;;;;;;;;;;;5017925;28;19920;-74
2024/03/22 13:17:21;;;;;;;;;;;;;;;;;;5022026;28;19913;-74
2024/03/22 13:19:47;;;;;;;;;;;;;;;;;;5020058;28;19914;-75
2024/03/22 13:22:12;;;;;;;;;;;;;;;;;;5022402;28;20400;-76
2024/03/22 13:24:37;;;;;;;;;;;;;;;;;;5015202;28;20016;-76
2024/03/22 13:27:02;;;;;;;;;;;;;;;;;;5017468;28;19953;-75
2024/03/22 13:29:27;;;;;;;;;;;;;;;;;;5022612;28;19910;-76
2024/03/22 13:31:53;;;;;;;;;;;;;;;;;;5020748;28;20031;-76
2024/03/22 13:34:18;;;;;;;;;;;;;;;;;;5027136;28;19928;-75
2024/03/22 13:36:43;;;;;;;;;;;;;;;;;;5026894;28;19940;-76
2024/03/22 13:39:15;;;;;;;;;;;;;;;;;;5023277;28;20008;-75
2024/03/22 13:41:40;;;;;;;;;;;;;;;;;;5025538;28;19913;-77
2024/03/22 13:44:07;;;;;;;;;;;;;;;;;;5021072;28;19928;-77
2024/03/22 13:46:36;;;;;;;;;;;;;;;;;;5027948;28;19917;-76
2024/03/22 13:49:01;;;;;;;;;;;;;;;;;;5023951;28;19921;-76
2024/03/22 13:51:28;;;;;;;;;;;;;;;;;;5011347;28;19925;-76
2024/03/22 13:53:53;;;;;;;;;;;;;;;;;;5028177;28;20416;-76
2024/03/22 13:56:18;;;;;;;;;;;;;;;;;;5023348;28;19913;-77
2024/03/22 13:58:43;;;;;;;;;;;;;;;;;;5027492;28;20285;-76
2024/03/22 14:01:08;;;;;;;;;;;;;;;;;;5030986;28;19924;-76
2024/03/22 14:03:33;;;;;;;;;;;;;;;;;;5030140;28;19921;-75
2024/03/22 14:05:58;;;;;;;;;;;;;;;;;;5024677;28;20368;-76
2024/03/22 14:08:23;;;;;;;;;;;;;;;;;;5030149;28;20553;-77
2024/03/22 14:10:49;;;;;;;;;;;;;;;;;;5025994;28;20343;-76
2024/03/22 14:13:15;;;;;;;;;;;;;;;;;;5025277;28;19918;-77
2024/03/22 14:15:40;;;;;;;;;;;;;;;;;;5025913;28;19921;-76
2024/03/22 14:18:05;;;;;;;;;;;;;;;;;;5009559;28;19988;-76
2024/03/22 14:20:30;;;;;;;;;;;;;;;;;;5027434;28;19913;-77
2024/03/22 14:22:56;;;;;;;;;;;;;;;;;;5031808;28;20274;-77
2024/03/22 14:25:21;;;;;;;;;;;;;;;;;;5033235;28;19913;-76
2024/03/22 14:27:46;;;;;;;;;;;;;;;;;;5023411;28;20412;-76
2024/03/22 14:30:12;;;;;;;;;;;;;;;;;;5025473;28;20385;-75
2024/03/22 14:32:37;;;;;;;;;;;;;;;;;;5023965;28;19935;-76
2024/03/22 14:35:03;;;;;;;;;;;;;;;;;;5018164;28;19913;-76
2024/03/22 14:37:28;;;;;;;;;;;;;;;;;;5028919;28;19917;-75
2024/03/22 14:39:53;;;;;;;;;;;;;;;;;;5032554;28;20030;-76
2024/03/22 14:42:18;;;;;;;;;;;;;;;;;;5030135;28;19937;-75
2024/03/22 14:44:43;;;;;;;;;;;;;;;;;;5027187;28;19913;-76
2024/03/22 14:47:08;;;;;;;;;;;;;;;;;;5022521;28;19909;-75
2024/03/22 14:49:34;;;;;;;;;;;;;;;;;;5039176;28;20372;-75
2024/03/22 14:52:00;;;;;;;;;;;;;;;;;;5044467;28;19979;-75
2024/03/22 14:54:25;;;;;;;;;;;;;;;;;;5044863;28;19909;-74
2024/03/22 14:56:50;;;;;;;;;;;;;;;;;;5044796;28;19913;-73
2024/03/22 14:59:15;;;;;;;;;;;;;;;;;;5040960;28;19937;-73
2024/03/22 15:01:40;;;;;;;;;;;;;;;;;;5041504;28;19913;-76
2024/03/22 15:04:06;;;;;;;;;;;;;;;;;;5051126;28;19970;-73
2024/03/22 15:06:31;;;;;;;;;;;;;;;;;;5040449;28;19913;-74
2024/03/22 15:08:57;;;;;;;;;;;;;;;;;;5038031;28;20428;-73
2024/03/22 15:11:22;;;;;;;;;;;;;;;;;;5041802;28;20692;-74
2024/03/22 15:13:47;;;;;;;;;;;;;;;;;;5047156;28;20000;-73
2024/03/22 15:16:13;;;;;;;;;;;;;;;;;;5041609;28;19924;-74
2024/03/22 15:18:38;;;;;;;;;;;;;;;;;;5046838;28;19913;-75
2024/03/22 15:21:03;;;;;;;;;;;;;;;;;;5044970;28;19912;-74
2024/03/22 15:23:28;;;;;;;;;;;;;;;;;;5039066;28;19921;-74
2024/03/22 15:25:54;;;;;;;;;;;;;;;;;;5037848;28;20354;-75
2024/03/22 15:28:19;;;;;;;;;;;;;;;;;;5049599;28;19917;-74
2024/03/22 15:30:47;;;;;;;;;;;;;;;;;;5052878;28;19924;-75
2024/03/22 15:33:12;;;;;;;;;;;;;;;;;;5053404;28;19909;-74
2024/03/22 15:35:38;;;;;;;;;;;;;;;;;;5053139;28;19939;-74
2024/03/22 15:38:03;;;;;;;;;;;;;;;;;;5044619;28;20526;-74
2024/03/22 15:40:28;;;;;;;;;;;;;;;;;;5031869;28;20281;-74
2024/03/22 15:42:54;;;;;;;;;;;;;;;;;;5038860;28;20332;-74
2024/03/22 15:45:19;;;;;;;;;;;;;;;;;;5051744;28;20281;-74
2024/03/22 15:47:44;;;;;;;;;;;;;;;;;;5052740;28;19909;-74
2024/03/22 15:50:09;;;;;;;;;;;;;;;;;;5036464;28;20361;-74
2024/03/22 15:52:35;;;;;;;;;;;;;;;;;;5038396;28;19913;-75
2024/03/22 15:55:00;;;;;;;;;;;;;;;;;;5042113;28;19913;-74
2024/03/22 15:57:26;;;;;;;;;;;;;;;;;;5049646;28;19916;-75
2024/03/22 15:59:51;;;;;;;;;;;;;;;;;;5035223;28;19913;-76
2024/03/22 16:02:16;;;;;;;;;;;;;;;;;;5032260;28;19917;-75
2024/03/22 16:04:41;;;;;;;;;;;;;;;;;;5038576;28;19913;-75
2024/03/22 16:07:06;;;;;;;;;;;;;;;;;;5043460;28;19949;-74
2024/03/22 16:09:31;;;;;;;;;;;;;;;;;;5038789;28;19964;-75
2024/03/22 16:11:57;;;;;;;;;;;;;;;;;;5037846;28;19924;-75
2024/03/22 16:14:22;;;;;;;;;;;;;;;;;;5042283;28;20365;-74
2024/03/22 16:16:47;;;;;;;;;;;;;;;;;;5039129;28;19917;-74
2024/03/22 16:19:12;;;;;;;;;;;;;;;;;;5035536;28;19924;-75
2024/03/22 16:21:37;;;;;;;;;;;;;;;;;;5039541;28;19923;-74
2024/03/22 16:24:03;;;;;;;;;;;;;;;;;;5037533;28;19957;-73
2024/03/22 16:26:29;;;;;;;;;;;;;;;;;;5039226;28;20440;-76
2024/03/22 16:28:54;;;;;;;;;;;;;;;;;;5040405;28;19995;-75
2024/03/22 16:31:19;;;;;;;;;;;;;;;;;;5036245;28;19916;-76
2024/03/22 16:33:45;;;;;;;;;;;;;;;;;;5042848;28;20284;-74